Time;durP1;ratioP1;P1;durP2;ratioP2;P2;SDS_P1;SDS_P2;PMS_P1;PMS_P2;Temp;Humidity;BMP_temperature;BMP_pressure;BME280_temperature;BME280_humidity;BME280_pressure;Samples;Min_cycle;Max_cycle;Signal;HPM_P1;HPM_P2
2022/06/18 00:00:32;;;;;;;5.13;2.10;;;;;;;;;;5294933;27;20029;-81
2022/06/18 00:03:03;;;;;;;6.33;2.30;;;;;;;;;;5302944;28;20255;-81
2022/06/18 00:05:35;;;;;;;4.80;2.37;;;;;;;;;;5301319;27;20274;-81
2022/06/18 00:08:12;;;;;;;5.70;2.15;;;;;;;;;;5326581;27;20254;-81
2022/06/18 00:10:44;;;;;;;3.67;2.10;;;;;;;;;;5319423;27;20476;-81
2022/06/18 00:16:05;;;;;;;5.88;2.22;;;;;;;;;;5315152;27;20126;-81
2022/06/18 00:18:36;;;;;;;6.05;2.25;;;;;;;;;;5298322;28;20130;-80
2022/06/18 00:21:09;;;;;;;6.70;2.30;;;;;;;;;;5306121;27;20356;-81
2022/06/18 00:23:43;;;;;;;3.47;2.35;;;;;;;;;;5326198;28;20107;-81
2022/06/18 00:26:15;;;;;;;4.35;2.42;;;;;;;;;;5289180;28;20047;-81
2022/06/18 00:28:46;;;;;;;5.75;2.22;;;;;;;;;;5314720;27;20016;-81
2022/06/18 00:31:17;;;;;;;4.00;2.53;;;;;;;;;;5310271;28;20063;-81
2022/06/18 00:33:48;;;;;;;4.80;2.30;;;;;;;;;;5305116;28;20505;-81
2022/06/18 00:36:21;;;;;;;4.27;1.93;;;;;;;;;;5306931;27;20386;-81
2022/06/18 00:38:53;;;;;;;2.63;2.42;;;;;;;;;;5296757;28;20587;-81
2022/06/18 00:41:26;;;;;;;6.13;2.42;;;;;;;;;;5322018;27;20036;-80
2022/06/18 00:43:58;;;;;;;3.92;2.70;;;;;;;;;;5286600;28;20064;-81
2022/06/18 00:46:30;;;;;;;2.58;2.00;;;;;;;;;;5315404;27;20050;-81
2022/06/18 00:49:03;;;;;;;4.03;2.50;;;;;;;;;;5342080;27;20028;-81
2022/06/18 00:51:40;;;;;;;4.88;3.10;;;;;;;;;;5317591;27;20056;-81
2022/06/18 00:54:17;;;;;;;3.30;2.42;;;;;;;;;;5305981;28;20479;-81
2022/06/18 00:56:59;;;;;;;5.03;2.47;;;;;;;;;;5308376;27;20032;-81
2022/06/18 00:59:34;;;;;;;4.70;2.55;;;;;;;;;;5336633;27;20031;-82
2022/06/18 01:02:08;;;;;;;4.88;2.85;;;;;;;;;;5309333;28;20481;-81
2022/06/18 01:04:40;;;;;;;3.45;2.13;;;;;;;;;;5317628;27;20725;-81
2022/06/18 01:07:16;;;;;;;4.40;2.33;;;;;;;;;;5305071;27;20036;-81
2022/06/18 01:09:49;;;;;;;5.90;2.70;;;;;;;;;;5301415;28;20459;-81
2022/06/18 01:12:21;;;;;;;3.83;2.90;;;;;;;;;;5314652;27;20048;-81
2022/06/18 01:15:11;;;;;;;6.80;2.90;;;;;;;;;;5304533;28;20072;-82
2022/06/18 01:17:42;;;;;;;5.50;2.90;;;;;;;;;;5321708;27;20036;-81
2022/06/18 01:20:14;;;;;;;3.97;2.77;;;;;;;;;;5307826;27;20497;-80
2022/06/18 01:23:00;;;;;;;6.25;2.90;;;;;;;;;;5334772;27;20274;-80
2022/06/18 01:25:32;;;;;;;10.45;3.30;;;;;;;;;;5310651;28;20072;-81
2022/06/18 01:28:03;;;;;;;4.38;2.70;;;;;;;;;;5305965;28;20043;-81
2022/06/18 01:30:36;;;;;;;7.22;2.97;;;;;;;;;;5325171;28;20028;-81
2022/06/18 01:33:08;;;;;;;3.85;2.80;;;;;;;;;;5292757;28;20606;-81
2022/06/18 01:35:41;;;;;;;7.07;3.30;;;;;;;;;;5286405;27;20033;-81
2022/06/18 01:38:13;;;;;;;5.10;2.80;;;;;;;;;;5317093;27;20032;-81
2022/06/18 01:40:44;;;;;;;7.72;3.67;;;;;;;;;;5324817;28;20024;-81
2022/06/18 01:43:17;;;;;;;6.25;3.17;;;;;;;;;;5307598;28;20118;-81
2022/06/18 01:45:54;;;;;;;10.18;2.97;;;;;;;;;;5325690;28;20035;-80
2022/06/18 01:48:34;;;;;;;8.45;3.30;;;;;;;;;;5304304;28;20028;-81
2022/06/18 01:51:10;;;;;;;4.60;3.13;;;;;;;;;;5321262;27;20479;-81
2022/06/18 01:53:47;;;;;;;4.63;3.55;;;;;;;;;;5308763;28;20035;-81
2022/06/18 01:56:21;;;;;;;5.28;3.35;;;;;;;;;;5324497;27;20114;-81
2022/06/18 01:58:58;;;;;;;4.63;3.40;;;;;;;;;;5324751;27;20032;-81
2022/06/18 02:01:32;;;;;;;5.35;3.38;;;;;;;;;;5312026;28;20090;-81
2022/06/18 02:04:03;;;;;;;11.93;3.88;;;;;;;;;;5319388;27;20105;-81
2022/06/18 02:06:35;;;;;;;6.47;3.60;;;;;;;;;;5310095;27;20105;-81
2022/06/18 02:09:33;;;;;;;8.38;3.50;;;;;;;;;;5319334;27;20062;-82
2022/06/18 02:12:07;;;;;;;;;;;;;;;;;;5328114;27;20055;-81
2022/06/18 02:14:40;;;;;;;4.57;3.75;;;;;;;;;;5296530;28;20440;-81
2022/06/18 02:17:17;;;;;;;5.55;4.18;;;;;;;;;;5301541;27;20025;-81
2022/06/18 02:19:54;;;;;;;6.25;3.80;;;;;;;;;;5308937;27;20105;-81
2022/06/18 02:22:33;;;;;;;7.15;3.55;;;;;;;;;;5307959;27;20024;-81
2022/06/18 02:25:05;;;;;;;7.05;3.67;;;;;;;;;;5325835;27;20020;-81
2022/06/18 02:27:37;;;;;;;8.80;3.95;;;;;;;;;;5319211;27;20082;-82
2022/06/18 02:30:19;;;;;;;4.50;3.72;;;;;;;;;;5321246;28;20093;-81
2022/06/18 02:33:09;;;;;;;4.30;3.85;;;;;;;;;;5317051;27;20036;-81
2022/06/18 02:35:40;;;;;;;6.97;3.50;;;;;;;;;;5326393;27;20438;-81
2022/06/18 02:38:19;;;;;;;7.07;3.72;;;;;;;;;;5313577;27;20043;-81
2022/06/18 02:40:51;;;;;;;6.53;4.43;;;;;;;;;;5290500;28;20036;-81
2022/06/18 02:43:22;;;;;;;7.75;4.40;;;;;;;;;;5288849;28;20032;-81
2022/06/18 02:45:55;;;;;;;7.20;4.25;;;;;;;;;;5291898;28;20032;-81
2022/06/18 02:48:28;;;;;;;9.57;4.13;;;;;;;;;;5318724;27;20036;-81
2022/06/18 02:51:00;;;;;;;7.10;4.72;;;;;;;;;;5320382;27;20045;-81
2022/06/18 02:53:32;;;;;;;5.43;4.18;;;;;;;;;;5299212;27;20100;-81
2022/06/18 02:56:06;;;;;;;6.38;4.93;;;;;;;;;;5310644;28;20391;-81
2022/06/18 02:58:39;;;;;;;9.70;5.00;;;;;;;;;;5294549;28;20170;-81
2022/06/18 03:01:13;;;;;;;7.28;4.95;;;;;;;;;;5289674;28;20119;-81
2022/06/18 03:03:52;;;;;;;5.30;4.68;;;;;;;;;;5314328;27;20047;-81
2022/06/18 03:06:24;;;;;;;7.20;4.95;;;;;;;;;;5316537;28;20036;-81
2022/06/18 03:08:57;;;;;;;9.55;5.35;;;;;;;;;;5295244;28;20107;-81
2022/06/18 03:14:18;;;;;;;7.85;4.93;;;;;;;;;;5317121;27;20032;-81
2022/06/18 03:16:50;;;;;;;7.18;4.43;;;;;;;;;;5320333;27;20537;-81
2022/06/18 03:19:27;;;;;;;7.25;5.35;;;;;;;;;;5298190;28;20491;-81
2022/06/18 03:22:05;;;;;;;6.53;4.80;;;;;;;;;;5315078;27;20032;-81
2022/06/18 03:24:36;;;;;;;6.10;4.80;;;;;;;;;;5311132;27;20032;-81
2022/06/18 03:27:09;;;;;;;11.10;5.53;;;;;;;;;;5314528;28;20573;-81
2022/06/18 03:29:40;;;;;;;8.50;5.63;;;;;;;;;;5319721;27;20400;-81
2022/06/18 03:32:12;;;;;;;8.07;4.82;;;;;;;;;;5322995;27;20060;-81
2022/06/18 03:34:43;;;;;;;8.80;5.30;;;;;;;;;;5320838;27;20044;-81
2022/06/18 03:37:14;;;;;;;9.15;5.15;;;;;;;;;;5302176;28;20040;-81
2022/06/18 03:39:45;;;;;;;7.82;5.25;;;;;;;;;;5293937;27;20028;-81
2022/06/18 03:42:17;;;;;;;5.83;4.93;;;;;;;;;;5296236;28;20482;-81
2022/06/18 03:44:48;;;;;;;6.67;5.20;;;;;;;;;;5319436;28;20024;-81
2022/06/18 03:47:19;;;;;;;7.10;4.90;;;;;;;;;;5298346;28;20020;-81
2022/06/18 03:49:50;;;;;;;8.52;5.63;;;;;;;;;;5298265;28;20255;-81
2022/06/18 03:52:22;;;;;;;8.38;5.35;;;;;;;;;;5320271;28;20020;-80
2022/06/18 03:54:53;;;;;;;12.32;5.72;;;;;;;;;;5297660;28;20118;-81
2022/06/18 03:57:26;;;;;;;5.78;3.90;;;;;;;;;;5327253;27;20031;-81
2022/06/18 03:59:57;;;;;;;8.23;5.78;;;;;;;;;;5319382;27;20028;-80
2022/06/18 04:02:28;;;;;;;9.15;5.55;;;;;;;;;;5328024;28;20024;-81
2022/06/18 04:04:59;;;;;;;8.20;5.30;;;;;;;;;;5300009;27;20139;-81
2022/06/18 04:07:30;;;;;;;7.93;5.77;;;;;;;;;;5315991;28;20728;-80
2022/06/18 04:10:02;;;;;;;6.95;5.38;;;;;;;;;;5297114;28;20032;-81
2022/06/18 04:12:34;;;;;;;10.10;5.60;;;;;;;;;;5311951;28;20443;-81
2022/06/18 04:15:05;;;;;;;7.82;4.95;;;;;;;;;;5319313;27;20070;-80
2022/06/18 04:17:36;;;;;;;6.88;4.95;;;;;;;;;;5325976;27;20028;-81
2022/06/18 04:20:14;;;;;;;7.80;5.30;;;;;;;;;;5316374;27;20122;-81
2022/06/18 04:22:45;;;;;;;6.20;4.60;;;;;;;;;;5314165;27;20028;-80
2022/06/18 04:25:17;;;;;;;7.30;5.53;;;;;;;;;;5297304;28;20032;-81
2022/06/18 04:27:48;;;;;;;10.17;5.57;;;;;;;;;;5321697;27;20662;-81
2022/06/18 04:30:19;;;;;;;6.50;5.60;;;;;;;;;;5293905;28;20332;-81
2022/06/18 04:32:51;;;;;;;8.75;6.05;;;;;;;;;;5314212;27;20024;-81
2022/06/18 04:35:23;;;;;;;8.70;5.95;;;;;;;;;;5322350;27;20032;-81
2022/06/18 04:37:55;;;;;;;7.03;5.65;;;;;;;;;;5294879;28;20024;-81
2022/06/18 04:40:32;;;;;;;8.25;5.97;;;;;;;;;;5295423;28;20044;-80
2022/06/18 04:43:05;;;;;;;9.25;6.35;;;;;;;;;;5322374;27;20453;-82
2022/06/18 04:45:36;;;;;;;7.50;6.70;;;;;;;;;;5299164;28;20024;-81
2022/06/18 04:48:07;;;;;;;9.20;6.78;;;;;;;;;;5322543;28;20039;-80
2022/06/18 04:50:39;;;;;;;8.57;6.10;;;;;;;;;;5323837;27;20391;-81
2022/06/18 04:53:11;;;;;;;7.75;5.90;;;;;;;;;;5331253;27;20051;-80
2022/06/18 04:55:42;;;;;;;10.35;6.28;;;;;;;;;;5320709;27;20042;-81
2022/06/18 04:58:13;;;;;;;10.40;7.00;;;;;;;;;;5326077;27;20020;-81
2022/06/18 05:00:44;;;;;;;11.32;6.53;;;;;;;;;;5325141;27;20277;-81
2022/06/18 05:03:16;;;;;;;9.38;6.68;;;;;;;;;;5345894;27;20016;-81
2022/06/18 05:05:48;;;;;;;9.20;5.93;;;;;;;;;;5326594;27;20570;-81
2022/06/18 05:08:19;;;;;;;15.00;7.53;;;;;;;;;;5304577;28;20079;-81
2022/06/18 05:10:51;;;;;;;9.02;6.75;;;;;;;;;;5335128;27;20051;-80
2022/06/18 05:13:22;;;;;;;8.07;6.80;;;;;;;;;;5307109;28;20078;-81
2022/06/18 05:15:54;;;;;;;9.63;6.63;;;;;;;;;;5321525;27;20020;-81
2022/06/18 05:18:26;;;;;;;8.50;6.28;;;;;;;;;;5328701;27;20020;-81
2022/06/18 05:20:58;;;;;;;11.52;7.50;;;;;;;;;;5315106;27;20040;-81
2022/06/18 05:23:29;;;;;;;7.80;6.28;;;;;;;;;;5286446;28;20083;-81
2022/06/18 05:26:00;;;;;;;8.98;6.10;;;;;;;;;;5312644;27;20059;-81
2022/06/18 05:28:35;;;;;;;16.83;7.50;;;;;;;;;;5304951;28;20025;-81
2022/06/18 05:31:06;;;;;;;8.60;6.38;;;;;;;;;;5305023;27;20025;-81
2022/06/18 05:33:37;;;;;;;11.53;6.40;;;;;;;;;;5304159;28;20622;-81
2022/06/18 05:36:09;;;;;;;10.75;6.65;;;;;;;;;;5291527;28;20414;-81
2022/06/18 05:38:40;;;;;;;11.32;7.18;;;;;;;;;;5319138;28;20073;-81
2022/06/18 05:41:12;;;;;;;10.20;6.63;;;;;;;;;;5301525;28;20457;-81
2022/06/18 05:43:45;;;;;;;7.23;5.53;;;;;;;;;;5324002;27;20502;-81
2022/06/18 05:46:16;;;;;;;7.40;6.07;;;;;;;;;;5284101;28;20412;-81
2022/06/18 05:48:51;;;;;;;10.57;6.27;;;;;;;;;;5312601;27;20126;-81
2022/06/18 05:51:23;;;;;;;10.60;6.40;;;;;;;;;;5317442;27;20032;-81
2022/06/18 05:53:57;;;;;;;11.35;6.22;;;;;;;;;;5326454;27;20036;-81
2022/06/18 05:59:50;;;;;;;10.90;5.32;;;;;;;;;;5316301;27;20036;-81
2022/06/18 06:02:29;;;;;;;10.40;6.28;;;;;;;;;;5307545;27;20029;-81
2022/06/18 06:05:12;;;;;;;16.30;5.63;;;;;;;;;;5293017;28;20531;-81
2022/06/18 06:07:51;;;;;;;13.05;4.93;;;;;;;;;;5299764;28;20519;-81
2022/06/18 06:13:35;;;;;;;11.77;6.10;;;;;;;;;;5321915;27;20036;-80
2022/06/18 06:16:25;;;;;;;13.23;5.80;;;;;;;;;;5296663;28;20028;-81
2022/06/18 06:18:56;;;;;;;11.32;5.47;;;;;;;;;;5309760;28;20530;-81
2022/06/18 06:21:28;;;;;;;10.17;5.50;;;;;;;;;;5315311;27;20139;-82
2022/06/18 06:23:59;;;;;;;11.32;5.60;;;;;;;;;;5307041;28;20028;-81
2022/06/18 06:26:37;;;;;;;15.10;5.22;;;;;;;;;;5295016;28;20036;-81
2022/06/18 06:29:09;;;;;;;9.77;5.10;;;;;;;;;;5318008;28;20040;-81
2022/06/18 06:31:40;;;;;;;12.73;5.15;;;;;;;;;;5316246;27;20094;-81
2022/06/18 06:34:11;;;;;;;7.97;4.40;;;;;;;;;;5287104;28;20060;-80
2022/06/18 06:36:43;;;;;;;9.05;4.68;;;;;;;;;;5310125;27;20500;-81
2022/06/18 06:39:16;;;;;;;9.05;5.47;;;;;;;;;;5313701;27;20494;-81
2022/06/18 06:41:48;;;;;;;16.63;5.10;;;;;;;;;;5322675;27;20032;-81
2022/06/18 06:44:19;;;;;;;9.63;5.07;;;;;;;;;;5324465;27;20472;-81
2022/06/18 06:46:52;;;;;;;10.13;5.35;;;;;;;;;;5319109;27;20027;-81
2022/06/18 06:49:23;;;;;;;11.48;5.55;;;;;;;;;;5307712;27;20097;-81
2022/06/18 06:51:54;;;;;;;9.30;5.60;;;;;;;;;;5301620;28;20024;-81
2022/06/18 06:54:26;;;;;;;14.80;5.30;;;;;;;;;;5304968;28;20036;-81
2022/06/18 06:59:47;;;;;;;14.95;6.07;;;;;;;;;;5323239;28;20263;-81
2022/06/18 07:02:19;;;;;;;14.93;5.33;;;;;;;;;;5317868;27;20028;-81
2022/06/18 07:04:50;;;;;;;10.90;5.32;;;;;;;;;;5308647;27;20345;-81
2022/06/18 07:07:21;;;;;;;11.50;5.60;;;;;;;;;;5322133;27;20118;-81
2022/06/18 07:09:53;;;;;;;14.07;5.90;;;;;;;;;;5324262;28;20028;-82
2022/06/18 07:12:24;;;;;;;16.23;5.17;;;;;;;;;;5304767;28;20028;-81
2022/06/18 07:14:55;;;;;;;11.13;4.97;;;;;;;;;;5322117;28;20477;-81
2022/06/18 07:17:28;;;;;;;8.77;4.43;;;;;;;;;;5321866;27;20266;-81
2022/06/18 07:19:59;;;;;;;16.77;5.75;;;;;;;;;;5331556;27;20052;-81
2022/06/18 07:22:32;;;;;;;8.07;4.50;;;;;;;;;;5330443;27;20016;-81
2022/06/18 07:25:04;;;;;;;11.35;4.65;;;;;;;;;;5331850;28;20043;-81
2022/06/18 07:27:35;;;;;;;9.82;4.68;;;;;;;;;;5346899;27;20028;-81
2022/06/18 07:30:08;;;;;;;11.68;5.05;;;;;;;;;;5333696;27;20218;-81
2022/06/18 07:32:43;;;;;;;11.05;4.45;;;;;;;;;;5321508;27;20047;-81
2022/06/18 07:35:19;;;;;;;10.07;4.45;;;;;;;;;;5337772;27;20052;-81
2022/06/18 07:37:50;;;;;;;10.10;4.70;;;;;;;;;;5319633;27;20036;-81
2022/06/18 07:40:22;;;;;;;12.57;4.28;;;;;;;;;;5310779;28;20021;-81
2022/06/18 07:42:53;;;;;;;12.40;4.70;;;;;;;;;;5294230;28;20036;-81
2022/06/18 07:45:25;;;;;;;11.20;4.88;;;;;;;;;;5310538;28;20036;-81
2022/06/18 07:47:56;;;;;;;8.43;4.05;;;;;;;;;;5308070;28;20020;-82
2022/06/18 07:50:29;;;;;;;10.10;4.10;;;;;;;;;;5325286;27;20036;-82
2022/06/18 07:53:00;;;;;;;9.38;4.72;;;;;;;;;;5323934;27;20028;-82
2022/06/18 07:55:31;;;;;;;9.97;3.97;;;;;;;;;;5314503;27;20082;-81
2022/06/18 07:58:03;;;;;;;12.73;4.35;;;;;;;;;;5304694;28;20016;-81
2022/06/18 08:00:35;;;;;;;10.83;4.67;;;;;;;;;;5310464;27;20048;-81
2022/06/18 08:03:07;;;;;;;12.65;4.07;;;;;;;;;;5336753;27;20601;-81
2022/06/18 08:05:39;;;;;;;12.52;4.32;;;;;;;;;;5341379;27;20111;-81
2022/06/18 08:08:12;;;;;;;9.65;4.10;;;;;;;;;;5316521;28;20017;-80
2022/06/18 08:10:47;;;;;;;10.57;4.00;;;;;;;;;;5313038;28;20035;-80
2022/06/18 08:13:19;;;;;;;14.43;4.00;;;;;;;;;;5324685;27;20117;-81
2022/06/18 08:15:50;;;;;;;9.80;4.10;;;;;;;;;;5302678;28;20123;-81
2022/06/18 08:18:22;;;;;;;12.30;4.27;;;;;;;;;;5320058;27;20016;-81
2022/06/18 08:20:53;;;;;;;9.37;3.70;;;;;;;;;;5326308;28;20452;-81
2022/06/18 08:23:24;;;;;;;10.85;3.80;;;;;;;;;;5294669;28;20443;-81
2022/06/18 08:25:56;;;;;;;13.05;5.38;;;;;;;;;;5306063;27;20027;-81
2022/06/18 08:28:33;;;;;;;10.38;4.38;;;;;;;;;;5320191;27;20020;-81
2022/06/18 08:31:06;;;;;;;12.98;4.60;;;;;;;;;;5291338;28;20119;-81
2022/06/18 08:33:37;;;;;;;10.15;4.40;;;;;;;;;;5307114;28;20121;-81
2022/06/18 08:36:11;;;;;;;10.23;4.10;;;;;;;;;;5313986;27;20032;-80
2022/06/18 08:38:43;;;;;;;11.40;4.18;;;;;;;;;;5301590;28;20055;-81
2022/06/18 08:41:14;;;;;;;11.80;4.75;;;;;;;;;;5310266;28;20075;-81
2022/06/18 08:43:55;;;;;;;11.40;3.55;;;;;;;;;;5314729;27;20159;-81
2022/06/18 08:46:32;;;;;;;14.82;3.72;;;;;;;;;;5317228;27;20085;-81
2022/06/18 08:49:10;;;;;;;15.02;4.95;;;;;;;;;;5315822;27;20120;-81
2022/06/18 08:52:07;;;;;;;16.95;3.90;;;;;;;;;;5328515;27;20022;-80
2022/06/18 08:54:44;;;;;;;14.77;4.30;;;;;;;;;;5311136;27;20056;-81
2022/06/18 08:57:34;;;;;;;11.30;4.40;;;;;;;;;;5313548;28;20025;-81
2022/06/18 09:00:15;;;;;;;15.57;4.53;;;;;;;;;;5309071;28;20043;-81
2022/06/18 09:02:55;;;;;;;10.00;3.42;;;;;;;;;;5308589;28;20494;-81
2022/06/18 09:05:26;;;;;;;12.15;3.53;;;;;;;;;;5306696;27;20107;-81
2022/06/18 09:08:16;;;;;;;8.55;3.65;;;;;;;;;;5311009;27;20480;-81
2022/06/18 09:10:56;;;;;;;14.45;3.80;;;;;;;;;;5305432;27;20024;-81
2022/06/18 09:13:54;;;;;;;14.32;4.18;;;;;;;;;;5321146;27;20109;-81
2022/06/18 09:16:31;;;;;;;11.00;4.10;;;;;;;;;;5307279;28;20036;-81
2022/06/18 09:19:06;;;;;;;13.93;4.82;;;;;;;;;;5290607;28;20028;-81
2022/06/18 09:21:43;;;;;;;14.07;4.82;;;;;;;;;;5323162;28;20030;-81
2022/06/18 09:24:17;;;;;;;12.55;4.00;;;;;;;;;;5320609;28;20031;-81
2022/06/18 09:26:50;;;;;;;10.55;3.92;;;;;;;;;;5304969;28;20032;-81
2022/06/18 09:29:24;;;;;;;10.00;4.15;;;;;;;;;;5295083;28;20048;-81
2022/06/18 09:32:10;;;;;;;11.48;4.43;;;;;;;;;;5286232;28;20036;-81
2022/06/18 09:34:45;;;;;;;12.85;4.90;;;;;;;;;;5308013;28;20102;-81
2022/06/18 09:37:16;;;;;;;;;;;;;;;;;;5330137;27;20162;-81
2022/06/18 09:39:50;;;;;;;13.57;4.47;;;;;;;;;;5302810;28;20007;-81
2022/06/18 09:42:27;;;;;;;14.48;4.15;;;;;;;;;;5286495;28;20131;-81
2022/06/18 09:45:06;;;;;;;10.82;4.32;;;;;;;;;;5318843;28;20036;-81
2022/06/18 09:47:40;;;;;;;13.60;4.50;;;;;;;;;;5300437;28;20035;-82
2022/06/18 09:50:14;;;;;;;13.68;5.43;;;;;;;;;;5314145;28;20143;-81
2022/06/18 09:52:47;;;;;;;11.73;4.33;;;;;;;;;;5315888;27;20116;-81
2022/06/18 09:55:22;;;;;;;13.32;4.10;;;;;;;;;;5308985;27;20524;-81
2022/06/18 09:57:54;;;;;;;10.98;4.05;;;;;;;;;;5291251;27;20514;-82
2022/06/18 10:00:30;;;;;;;11.60;4.72;;;;;;;;;;5314510;27;20036;-81
2022/06/18 10:03:02;;;;;;;14.68;4.50;;;;;;;;;;5310240;27;20023;-82
2022/06/18 10:08:39;;;;;;;16.92;4.35;;;;;;;;;;5312525;27;20059;-81
2022/06/18 10:11:11;;;;;;;10.40;3.70;;;;;;;;;;5311220;27;20502;-82
2022/06/18 10:13:44;;;;;;;6.97;4.15;;;;;;;;;;5311805;27;20024;-82
2022/06/18 10:16:22;;;;;;;11.68;4.32;;;;;;;;;;5309947;27;20020;-82
2022/06/18 10:19:09;;;;;;;13.35;4.20;;;;;;;;;;5308546;27;20040;-82
2022/06/18 10:21:54;;;;;;;12.52;4.07;;;;;;;;;;5293351;28;20032;-82
2022/06/18 10:24:32;;;;;;;12.70;4.07;;;;;;;;;;5289961;27;20077;-83
2022/06/18 10:27:10;;;;;;;13.70;4.82;;;;;;;;;;5308636;27;20033;-82
2022/06/18 10:29:50;;;;;;;15.38;3.88;;;;;;;;;;5310992;27;20059;-82
2022/06/18 10:32:28;;;;;;;17.23;4.38;;;;;;;;;;5314003;28;20028;-82
2022/06/18 10:35:02;;;;;;;10.27;4.10;;;;;;;;;;5309914;27;20040;-82
2022/06/18 10:37:33;;;;;;;11.00;3.95;;;;;;;;;;5316483;28;20473;-82
2022/06/18 10:40:08;;;;;;;12.33;3.80;;;;;;;;;;5322846;27;20027;-82
2022/06/18 10:42:42;;;;;;;9.60;3.70;;;;;;;;;;5295171;27;20040;-82
2022/06/18 10:45:33;;;;;;;11.32;3.72;;;;;;;;;;5310187;27;20051;-80
2022/06/18 10:48:09;;;;;;;14.50;4.28;;;;;;;;;;5314528;28;20530;-81
2022/06/18 10:50:45;;;;;;;14.93;5.00;;;;;;;;;;5310701;27;20060;-81
2022/06/18 10:53:18;;;;;;;9.45;3.33;;;;;;;;;;5314172;27;20028;-81
2022/06/18 10:56:00;;;;;;;11.48;3.63;;;;;;;;;;5318571;27;20063;-81
2022/06/18 10:58:31;;;;;;;11.18;3.35;;;;;;;;;;5331243;27;20024;-81
2022/06/18 11:01:05;;;;;;;12.52;3.92;;;;;;;;;;5293946;28;20032;-81
2022/06/18 11:03:36;;;;;;;16.08;4.03;;;;;;;;;;5308565;27;20358;-82
2022/06/18 11:06:12;;;;;;;18.20;4.10;;;;;;;;;;5305088;28;20028;-81
2022/06/18 11:08:51;;;;;;;12.25;3.75;;;;;;;;;;5296584;28;20026;-82
2022/06/18 11:11:24;;;;;;;11.93;4.13;;;;;;;;;;5304575;28;20362;-82
2022/06/18 11:14:06;;;;;;;13.20;4.20;;;;;;;;;;5305145;28;20404;-81
2022/06/18 11:16:41;;;;;;;14.18;3.20;;;;;;;;;;5313501;27;20025;-82
2022/06/18 11:19:24;;;;;;;11.63;4.40;;;;;;;;;;5327507;28;20101;-82
2022/06/18 11:21:55;;;;;;;11.25;4.10;;;;;;;;;;5341945;27;20027;-82
2022/06/18 11:24:27;;;;;;;12.32;3.90;;;;;;;;;;5322828;27;20354;-81
2022/06/18 11:27:00;;;;;;;18.65;5.07;;;;;;;;;;5323187;27;20583;-82
2022/06/18 11:29:42;;;;;;;14.77;4.13;;;;;;;;;;5307463;28;20031;-81
2022/06/18 11:32:29;;;;;;;13.85;3.97;;;;;;;;;;5316679;27;20039;-81
2022/06/18 11:35:06;;;;;;;12.95;3.67;;;;;;;;;;5313559;27;20053;-82
2022/06/18 11:37:37;;;;;;;14.57;3.75;;;;;;;;;;5304597;28;20032;-82
2022/06/18 11:40:11;;;;;;;11.33;3.80;;;;;;;;;;5328238;28;20024;-81
2022/06/18 11:42:42;;;;;;;;;;;;;;;;;;5309394;28;20024;-81
2022/06/18 11:45:25;;;;;;;25.90;4.60;;;;;;;;;;5327865;28;19912;-81
2022/06/18 11:48:20;;;;;;;12.57;3.75;;;;;;;;;;5306171;27;20051;-81
2022/06/18 11:50:51;;;;;;;;;;;;;;;;;;5320137;27;20449;-81
2022/06/18 11:53:34;;;;;;;9.38;3.67;;;;;;;;;;5324468;27;19934;-80
2022/06/18 11:56:20;;;;;;;10.33;3.50;;;;;;;;;;5306604;28;20044;-81
2022/06/18 11:58:56;;;;;;;8.93;3.53;;;;;;;;;;5306361;28;20020;-81
2022/06/18 12:01:41;;;;;;;10.73;3.75;;;;;;;;;;5327302;28;20419;-81
2022/06/18 12:04:25;;;;;;;14.20;4.47;;;;;;;;;;5327675;28;20028;-82
2022/06/18 12:07:03;;;;;;;11.32;3.85;;;;;;;;;;5311498;28;20024;-81
2022/06/18 12:09:36;;;;;;;14.00;4.30;;;;;;;;;;5324771;27;20078;-82
2022/06/18 12:12:07;;;;;;;10.90;3.65;;;;;;;;;;5314396;27;20515;-82
2022/06/18 12:14:44;;;;;;;10.88;3.85;;;;;;;;;;5317108;27;20032;-81
2022/06/18 12:17:21;;;;;;;14.98;4.18;;;;;;;;;;5294100;27;20334;-82
2022/06/18 12:19:52;;;;;;;12.52;3.60;;;;;;;;;;5299325;27;20039;-82
2022/06/18 12:22:31;;;;;;;17.33;4.07;;;;;;;;;;5327319;27;20032;-82
2022/06/18 12:25:27;;;;;;;12.68;4.05;;;;;;;;;;5310886;27;20037;-82
2022/06/18 12:28:04;;;;;;;9.02;3.55;;;;;;;;;;5311710;27;20040;-82
2022/06/18 12:30:44;;;;;;;15.30;4.15;;;;;;;;;;5303088;27;20024;-82
2022/06/18 12:33:18;;;;;;;14.20;4.30;;;;;;;;;;5315136;27;20028;-82
2022/06/18 12:35:56;;;;;;;16.02;4.18;;;;;;;;;;5315290;27;20050;-82
2022/06/18 12:38:37;;;;;;;15.10;4.15;;;;;;;;;;5315273;27;20419;-82
2022/06/18 12:41:16;;;;;;;14.38;3.70;;;;;;;;;;5315915;27;20043;-82
2022/06/18 12:43:54;;;;;;;9.13;3.60;;;;;;;;;;5338540;27;20035;-82
2022/06/18 12:46:36;;;;;;;12.07;4.03;;;;;;;;;;5304979;27;20032;-82
2022/06/18 12:49:10;;;;;;;14.55;3.80;;;;;;;;;;5324802;27;20028;-82
2022/06/18 12:51:51;;;;;;;9.98;3.50;;;;;;;;;;5295561;28;20040;-82
2022/06/18 12:54:23;;;;;;;13.00;3.78;;;;;;;;;;5309109;27;20039;-82
2022/06/18 12:56:57;;;;;;;12.25;4.03;;;;;;;;;;5300384;28;20024;-82
2022/06/18 12:59:46;;;;;;;14.40;3.70;;;;;;;;;;5324992;27;20038;-82
2022/06/18 13:02:34;;;;;;;10.35;3.75;;;;;;;;;;5331310;27;20024;-82
2022/06/18 13:05:14;;;;;;;13.60;4.03;;;;;;;;;;5306953;28;20032;-82
2022/06/18 13:08:03;;;;;;;10.88;3.80;;;;;;;;;;5324241;27;20370;-82
2022/06/18 13:10:36;;;;;;;13.38;3.85;;;;;;;;;;5300044;28;20020;-82
2022/06/18 13:13:22;;;;;;;13.07;4.32;;;;;;;;;;5327326;28;20099;-82
2022/06/18 13:15:58;;;;;;;13.02;3.92;;;;;;;;;;5331975;27;20163;-82
2022/06/18 13:18:41;;;;;;;14.27;3.65;;;;;;;;;;5305098;28;20039;-82
2022/06/18 13:21:13;;;;;;;13.67;3.60;;;;;;;;;;5323692;28;20035;-82
2022/06/18 13:29:43;;;;;;;12.88;4.00;;;;;;;;;;5327604;28;20028;-81
2022/06/18 13:32:14;;;;;;;14.00;3.97;;;;;;;;;;5325077;28;20048;-81
2022/06/18 13:35:04;;;;;;;13.97;4.33;;;;;;;;;;5352212;27;20059;-81
2022/06/18 13:37:55;;;;;;;12.50;3.92;;;;;;;;;;5334855;28;20040;-81
2022/06/18 13:40:37;;;;;;;14.63;4.15;;;;;;;;;;5309716;28;20037;-81
2022/06/18 13:43:14;;;;;;;12.77;4.05;;;;;;;;;;5335826;28;20035;-81
2022/06/18 13:45:45;;;;;;;12.07;4.15;;;;;;;;;;5329484;28;20048;-81
2022/06/18 13:48:29;;;;;;;14.57;4.28;;;;;;;;;;5320165;28;20024;-81
2022/06/18 13:51:00;;;;;;;17.08;4.60;;;;;;;;;;5302478;28;20033;-80
2022/06/18 13:53:31;;;;;;;19.87;3.97;;;;;;;;;;5332681;28;20051;-81
2022/06/18 13:56:16;;;;;;;11.40;3.80;;;;;;;;;;5320197;28;20043;-81
2022/06/18 13:58:55;;;;;;;13.45;4.22;;;;;;;;;;5314412;28;20073;-81
2022/06/18 14:01:27;;;;;;;12.18;4.03;;;;;;;;;;5298905;28;20118;-81
2022/06/18 14:04:03;;;;;;;16.15;3.90;;;;;;;;;;5310475;28;20024;-81
2022/06/18 14:06:45;;;;;;;13.38;4.40;;;;;;;;;;5296575;28;20028;-81
2022/06/18 14:09:19;;;;;;;15.18;4.18;;;;;;;;;;5308042;28;20473;-81
2022/06/18 14:11:52;;;;;;;;;;;;;;;;;;5291928;28;20036;-81
2022/06/18 14:14:31;;;;;;;13.55;4.18;;;;;;;;;;5297234;28;19963;-81
2022/06/18 14:17:08;;;;;;;10.57;4.13;;;;;;;;;;5299319;28;20507;-82
2022/06/18 14:19:56;;;;;;;14.10;3.67;;;;;;;;;;5303150;28;20017;-82
2022/06/18 14:22:29;;;;;;;14.60;4.55;;;;;;;;;;5304264;27;20023;-82
2022/06/18 14:25:02;;;;;;;12.15;4.68;;;;;;;;;;5313423;28;20035;-82
2022/06/18 14:27:40;;;;;;;11.48;4.32;;;;;;;;;;5300178;28;20036;-82
2022/06/18 14:30:29;;;;;;;14.35;4.45;;;;;;;;;;5305669;28;20024;-80
2022/06/18 14:33:06;;;;;;;11.93;3.97;;;;;;;;;;5304280;28;20024;-81
2022/06/18 14:35:43;;;;;;;12.13;3.88;;;;;;;;;;5322631;28;20460;-81
2022/06/18 14:38:14;;;;;;;16.52;4.93;;;;;;;;;;5324013;27;20158;-81
2022/06/18 14:43:57;;;;;;;9.82;4.32;;;;;;;;;;5321277;28;20032;-81
2022/06/18 14:46:46;;;;;;;14.88;4.90;;;;;;;;;;5302832;28;20150;-82
2022/06/18 14:49:24;;;;;;;15.38;4.20;;;;;;;;;;5313348;27;20158;-81
2022/06/18 14:52:01;;;;;;;13.77;4.80;;;;;;;;;;5287383;28;20038;-81
2022/06/18 14:54:39;;;;;;;16.55;5.32;;;;;;;;;;5307366;28;20025;-81
2022/06/18 14:57:29;;;;;;;17.05;5.07;;;;;;;;;;5329154;27;20024;-81
2022/06/18 15:00:00;;;;;;;11.30;4.78;;;;;;;;;;5342843;27;21018;-80
2022/06/18 15:02:44;;;;;;;15.87;5.23;;;;;;;;;;5342733;27;20097;-80
2022/06/18 15:05:17;;;;;;;9.82;4.05;;;;;;;;;;5345388;27;20587;-81
2022/06/18 15:07:48;;;;;;;13.88;5.15;;;;;;;;;;5343362;27;20029;-81
2022/06/18 15:10:27;;;;;;;12.75;5.03;;;;;;;;;;5320205;28;20346;-82
2022/06/18 15:12:59;;;;;;;11.63;4.90;;;;;;;;;;5324964;28;20492;-81
2022/06/18 15:18:55;;;;;;;13.98;5.15;;;;;;;;;;5304162;28;20052;-81
2022/06/18 15:21:37;;;;;;;18.23;5.07;;;;;;;;;;5302606;28;20025;-81
2022/06/18 15:24:26;;;;;;;14.35;4.72;;;;;;;;;;5297997;28;20031;-81
2022/06/18 15:26:58;;;;;;;12.55;4.47;;;;;;;;;;5314221;27;20054;-81
2022/06/18 15:29:30;;;;;;;13.73;4.55;;;;;;;;;;5299322;27;20021;-82
2022/06/18 15:32:15;;;;;;;12.65;3.85;;;;;;;;;;5308731;27;20029;-82
2022/06/18 15:34:57;;;;;;;12.07;4.32;;;;;;;;;;5320036;27;20540;-81
2022/06/18 15:37:28;;;;;;;12.88;4.32;;;;;;;;;;5321230;27;20027;-81
2022/06/18 15:40:01;;;;;;;13.87;4.73;;;;;;;;;;5326856;27;20036;-81
2022/06/18 15:42:38;;;;;;;15.52;4.55;;;;;;;;;;5314605;27;20031;-82
2022/06/18 15:45:21;;;;;;;11.50;4.20;;;;;;;;;;5315058;27;20036;-82
2022/06/18 15:47:57;;;;;;;14.63;5.00;;;;;;;;;;5310955;27;20032;-81
2022/06/18 15:50:31;;;;;;;12.38;5.07;;;;;;;;;;5289585;27;20036;-81
2022/06/18 15:53:02;;;;;;;18.20;5.03;;;;;;;;;;5298363;27;20431;-82